航空気象通報

ウインドサーファーのための航空気象通報による風予報です。

5/30-5/31の航空気象通報(国内、海外)

2012年05月30日 23時15分35秒 | TAF

羽田空港
TAF RJTT 300838Z 3009/3112 12010KT 9999 FEW020 SCT045
     BECMG 3015/3017 05008KT
     BECMG 3100/3103 12010KT
日本時間30日18-24時:120度から10ノットの風
31日00-02時:風が変化
02-09時:050度から8ノットの風
09-12時:風が変化
12-21時:120度から10ノットの風

静岡空港
TAF RJNS 300839Z 3009/3112 16006KT 8000 FEW020 BKN040
     BECMG 3011/3013 32004KT
     BECMG 3100/3103 16008KT
日本時間30日18-20時:160度から6ノットの風
20-22時:風が変化
22時-31日09時:320度から4ノットの風
09-12時:風が変化
12-21時:160度から8ノットの風

福岡空港
TAF RJFF 300849Z 3009/3112 36008KT 9000 FEW030
     BECMG 3012/3014 12003KT
     BECMG 3100/3103 32010KT
日本時間30日18-21時:360度から8ノットの風
21-23時:風が変化
23時-31日09時:120度から3ノットの風
09-12時:風が変化
12-21時:320度から10ノットの風

那覇空港
TAF ROAH 300840Z 3009/3112 13011KT 9999 SCT015 BKN030
     BECMG 3100/3103 19015KT
     BECMG 3106/3109 36010KT
     TEMPO 3106/3109 3000 +SHRA FEW008 BKN015 SCT020CB
日本時間30日18時-31日09時:130度から11ノットの風
09-12時:風が変化
12-15時:190度から15ノットの風
15-18時:風が変化
18-21時:360度から10ノットの風

但し、31日15-18時の間:ときどき

マウイのカフルイ空港
PHOG 301120Z 3012/3112 06012G22KT P6SM SCT050 BKN250
     FM302000 06020G30KT P6SM SCT050 BKN250
     FM310700 06012G22KT P6SM SCT050 BKN250 AMD LTD TO WX VIS AND WIND TIL 301600
ハワイ時間30日02-10時:060度から12ノット、突風22ノット
10-21時:060度から20ノット、突風30ノット
21時-31日02時:060度から12ノット、突風22ノット

サイパン空港
PGSN 301138Z 3012/3112 08011KT P6SM VCSH SCT020 SCT060 BKN200
マリアナ時間30日22時-31日21時:080度から11ノットの風

コメント

5/29-5/30の航空気象通報(国内、海外)

2012年05月29日 23時45分30秒 | TAF

羽田空港
TAF AMD RJTT 291211Z 2912/3012 20015KT 9999 FEW030 BKN050
     TEMPO 2912/2913 4000 -TSRA FEW008 BKN020 FEW020CB
     BECMG 2913/2915 35010KT
     TEMPO 2913/2915 3000 TSRA FEW008 BKN020 FEW020CB
     BECMG 3000/3003 12010KT
日本時間29日18-22時:200度から15ノットの風
22-24時:風が変化
30日00-09時:350度から10ノットの風
09-12時:風が変化
12-21時:120度から10ノットの風

但し、29日21-22時の間:ときどき
但し、29日22-24時の間:ときどき

静岡空港
TAF RJNS 290846Z 2909/3012 29012KT 8000 FEW020 BKN030
     TEMPO 2909/2913 2500 TSRA FEW010 BKN020 FEW020CB
     TEMPO 2913/2915 3000 -SHRA BR BKN006 BKN030
     BECMG 2921/2924 16008KT
日本時間29日18時-30日06時:290度から12ノットの風
06-09時:風が変化
09-21時:160度から8ノットの風

但し、29日18-22時の間:ときどき
但し、29日22-24時の間:ときどき

福岡空港
TAF RJFF 290841Z 2909/3012 33007KT 9999 FEW040
     BECMG 2911/2913 14003KT
     BECMG 3000/3003 34008KT
     BECMG 3009/3012 14005KT
日本時間29日18-20時:330度から7ノットの風
20-22時:風が変化
22時-30日09時:140度から3ノットの風
09-12時:風が変化
12-18時:340度から8ノットの風
18-21時:風が変化
21時:140度から5ノットの風

那覇空港
TAF ROAH 290839Z 2909/3012 10012KT 9999 SCT020 BKN045
     TEMPO 3000/3009 11017G27KT
日本時間29日18時-30日21時:100度から12ノットの風
但し、30日09-18時の間:110度から17ノット、突風27ノット

マウイのカフルイ空港
PHOG 291129Z 2912/3012 04012G19KT P6SM FEW050
     FM291900 06023G33KT P6SM FEW030 SCT050
     FM300600 04014G20KT P6SM FEW050 AMD LTD TO WX VIS AND WIND TIL 291600
ハワイ時間29日02-09時:040度から12ノット、突風19ノット
09-20時:060度から23ノット、突風33ノット
20時-30日02時:040度から14ノット、突風20ノット

サイパン空港
PGSN 291135Z 2912/3012 09008KT P6SM VCSH SCT020
     FM292100 09014KT P6SM VCSH SCT020 SCT040 SCT080
マリアナ時間29日22時-30日07時:090度から8ノットの風
07-22時:090度から14ノットの風

コメント

5/28-5/29の航空気象通報(国内、海外)

2012年05月28日 23時21分48秒 | TAF

羽田空港
TAF RJTT 280845Z 2809/2912 19012KT 9999 FEW010 SCT030
     BECMG 2815/2817 30004KT
     BECMG 2900/2903 18018KT
     TEMPO 2903/2906 20025G35KT
     TEMPO 2906/2909 20025G35KT 3000 TSRA FEW008 BKN020 FEW020CB
日本時間28日18-24時:190度から12ノットの風
29日00-02時:風が変化
02-09時:300度から4ノットの風
09-12時:風が変化
12-21時:180度から18ノットの風
但し、12-18時の間:ときどき250度から25ノット、突風35ノット

但し、29日15-18時の間:ときどき

静岡空港
TAF AMD RJNS 281102Z 2811/2912 24005KT 9999 FEW020 BKN030
     TEMPO 2811/2812 4000 -TSRA FEW010 BKN020 FEW025CB
     TEMPO 2817/2821 3500 BR FEW005 BKN009
     BECMG 2903/2906 22016KT
日本時間28日20時-29日12時:240度から5ノットの風
12-15時:風が変化
15-21時:220度から16ノットの風

但し、28日20-21時の間:ときどき

福岡空港
TAF RJFF 280838Z 2809/2912 34008KT 9999 FEW030
     BECMG 2812/2814 14005KT
     BECMG 2900/2903 32010KT
日本時間28日18-21時:340度から8ノットの風
21-23時:風が変化
23時-29日09時:140度から5ノットの風
09-12時:風が変化
12-21時:320度から10ノットの風

那覇空港
TAF ROAH 280838Z 2809/2912 06010KT 9999 SCT015 BKN040
     BECMG 2906/2909 10015KT
日本時間28日18時-29日15時:060度から10ノットの風
15-18時:風が変化
18-21時:100度から15ノットの風

マウイのカフルイ空港
PHOG 281132Z 2812/2912 05017G25KT P6SM FEW050
     FM281900 05025G35KT P6SM FEW030 SCT050
     FM290600 05014G24KT P6SM FEW050 AMD LTD TO WX VIS AND WIND TIL 281600
ハワイ時間28日02-09時:050度から17ノット、突風25ノット
09-20時:050度から25ノット、突風35ノット
20時-29日02時:050度から14ノット、突風24ノット

サイパン空港
PGSN 281120Z 2812/2912 09011KT P6SM VCSH SCT020 SCT050
マリアナ時間28日22時-29日22時:090度から11ノットの風

コメント

5/27-5/28の航空気象通報(国内、海外)

2012年05月27日 23時20分26秒 | TAF

羽田空港
TAF RJTT 270846Z 2709/2812 18010KT 9999 FEW020 SCT050
     BECMG 2800/2803 18020KT
     TEMPO 2803/2806 19022G32KT
     TEMPO 2809/2812 SHRA
日本時間27日18時-28日09時:180度から10ノットの風
09-12時:風が変化
12-21時:180度から20ノットの風
但し、12-15時の間:ときどき190度から22ノット、突風32ノット

静岡空港
TAF RJNS 270843Z 2709/2812 16008KT 9999 FEW030
     BECMG 2710/2712 32004KT
     BECMG 2800/2803 18010KT
     BECMG 2809/2812 24006KT
日本時間27日18-19時:160度から8ノットの風
19-21時:風が変化
21時-28日09時:320度から4ノットの風
09-12時:風が変化
12-18時:180度から10ノットの風
18-21時:風が変化
21時:240度から6ノットの風

福岡空港
TAF RJFF 270841Z 2709/2812 33006KT CAVOK
     BECMG 2712/2714 14005KT
     BECMG 2800/2803 32010KT
日本時間27日18-21時:330度から6ノットの風
21-23時:風が変化
23時-28日09時:140度から5ノットの風
09-12時:風が変化
12-21時:320度から10ノットの風

那覇空港
TAF ROAH 270841Z 2709/2812 02012KT 9999 FEW020 BKN040
日本時間27日18時-28日21時:020度から12ノットの風

マウイのカフルイ空港
PHOG 271136Z 2712/2812 06012G20KT P6SM SCT025 BKN040
     TEMPO 2712/2715 -SHRA BKN025
     FM271900 05020G30KT P6SM FEW030 SCT050
     FM280500 05012G20KT P6SM SCT050 AMD LTD TO WX VIS AND WIND TIL 271600
ハワイ時間27日02-09時:060度から12ノット、突風20ノット

09-19時:050度から20ノット、突風30ノット
19時-28日02時:050度から12ノット、突風20ノット

サイパン空港
PGSN 271121Z 2712/2812 12009KT P6SM VCSH SCT020 SCT050 BKN140
マリアナ時間27日22時-28日21時:120度から9ノットの風

コメント

5/26-5/27の航空気象通報(国内、海外)

2012年05月26日 19時51分45秒 | TAF

羽田空港
TAF RJTT 260851Z 2609/2712 20010KT 9999 FEW030
     BECMG 2611/2613 12006KT
     BECMG 2703/2706 18014KT
日本時間26日18-20時:200度から10ノットの風
20-22時:風が変化
33時-27日12時:120度から6ノットの風
12-15時:風が変化
15-21時:180度から14ノットの風

静岡空港
TAF RJNS 260842Z 2609/2712 18006KT 9999 FEW030
     BECMG 2610/2612 34004KT
     BECMG 2700/2703 14010KT
日本時間26日18-19時:180度から6ノットの風
19-21時:風が変化
21時-27日09時:340度から4ノットの風
09-12時:風が変化
12-21時:140度から10ノットの風

福岡空港
TAF RJFF 260840Z 2609/2712 32007KT 9999 FEW030
     BECMG 2613/2615 13003KT
     BECMG 2700/2703 31010KT
日本時間26日18-22時:320度から7ノットの風
22-24時:風が変化
27日00-09時:130度から3ノットの風
09-12時:風が変化
12-21時:310度から10ノットの風

那覇空港
TAF ROAH 260838Z 2609/2712 32008KT 9999 FEW020 BKN040
日本時間26日18時-27日21時:320度から8ノットの風

マウイのカフルイ空港
PHOG 261142Z 2612/2712 05012G20KT P6SM SCT050
     FM261700 06020G30KT P6SM FEW030 SCT050
     FM270400 06015G25KT P6SM FEW030 SCT050
     FM270800 06012G18KT P6SM SCT050 AMD LTD TO WX VIS AND WIND TIL 261600
ハワイ時間26日02-07時:050度から12ノット、突風20ノット
07-18時:060度から20ノット、突風30ノット
18-22時:060度から15ノット、突風25ノット
22時-27日02時:060度から12ノット、突風18ノット

サイパン空港
PGSN 261120Z 2612/2712 14007KT P6SM VCSH SCT020 SCT050 SCT120
マリアナ時間26日22時-27日22時:140度から7ノットの風

コメント